createdAt,value
2018-10-17T00:00:55.942Z,0.00
2018-10-17T00:01:55.813Z,0.00
2018-10-17T00:02:55.734Z,0.00
2018-10-17T00:03:55.644Z,0.00
2018-10-17T00:04:55.577Z,0.00
2018-10-17T00:05:55.476Z,0.00
2018-10-17T00:06:55.462Z,0.00
2018-10-17T00:07:55.309Z,0.00
2018-10-17T00:08:55.232Z,0.00
2018-10-17T00:09:55.146Z,0.00
2018-10-17T00:10:55.064Z,0.00
2018-10-17T00:11:54.987Z,0.00
2018-10-17T00:12:54.942Z,0.00
2018-10-17T00:13:54.820Z,0.00
2018-10-17T00:14:54.738Z,0.00
2018-10-17T00:15:54.664Z,0.00
2018-10-17T00:16:54.605Z,0.00
2018-10-17T00:17:54.490Z,0.00
2018-10-17T00:18:54.444Z,0.00
2018-10-17T00:19:54.323Z,0.00
2018-10-17T00:20:54.262Z,0.00
2018-10-17T00:21:54.163Z,0.00
2018-10-17T00:22:54.088Z,0.00
2018-10-17T00:23:53.996Z,0.00
2018-10-17T00:24:53.932Z,0.00
2018-10-17T00:25:53.835Z,0.00
2018-10-17T00:26:53.751Z,0.00
2018-10-17T00:27:53.665Z,0.00
2018-10-17T00:28:53.646Z,0.00
2018-10-17T00:29:53.502Z,0.00
2018-10-17T00:30:53.461Z,0.00
2018-10-17T00:31:53.347Z,0.00
2018-10-17T00:32:53.253Z,0.00
2018-10-17T00:33:53.177Z,0.00
2018-10-17T00:34:53.099Z,0.00
2018-10-17T00:35:53.000Z,0.00
2018-10-17T00:36:52.968Z,0.00
2018-10-17T00:37:52.841Z,0.00
2018-10-17T00:38:52.767Z,0.00
2018-10-17T00:39:52.674Z,0.00
2018-10-17T00:40:52.626Z,0.00
2018-10-17T00:41:52.517Z,0.00
2018-10-17T00:42:52.475Z,0.00
2018-10-17T00:43:52.357Z,0.00
2018-10-17T00:44:52.263Z,0.00
2018-10-17T00:45:52.192Z,0.00
2018-10-17T00:46:52.108Z,0.00
2018-10-17T00:47:52.017Z,0.00
2018-10-17T00:48:51.951Z,0.00
2018-10-17T00:49:51.854Z,0.00
2018-10-17T00:50:51.786Z,0.00
2018-10-17T00:51:51.708Z,0.00
2018-10-17T00:52:51.621Z,0.00
2018-10-17T00:53:51.530Z,0.00
2018-10-17T00:54:51.457Z,0.00
2018-10-17T00:55:51.359Z,0.00
2018-10-17T00:56:51.274Z,0.00
2018-10-17T00:57:51.204Z,0.00
2018-10-17T00:58:51.157Z,0.00
2018-10-17T00:59:51.031Z,0.00
2018-10-17T01:00:50.963Z,0.00
2018-10-17T01:01:50.869Z,0.00
2018-10-17T01:02:50.782Z,0.00
2018-10-17T01:03:50.706Z,0.00
2018-10-17T01:04:50.623Z,0.00
2018-10-17T01:05:50.535Z,0.00
2018-10-17T01:06:50.453Z,0.00
2018-10-17T01:07:50.370Z,0.00
2018-10-17T01:08:50.294Z,0.00
2018-10-17T01:09:50.206Z,0.00
2018-10-17T01:10:50.122Z,0.00
2018-10-17T01:11:50.046Z,0.00
2018-10-17T01:12:49.957Z,0.00
2018-10-17T01:13:49.896Z,0.00
2018-10-17T01:14:49.796Z,0.00
2018-10-17T01:15:49.708Z,0.00
2018-10-17T01:16:49.632Z,0.00
2018-10-17T01:17:49.547Z,0.00
2018-10-17T01:18:49.471Z,0.00
2018-10-17T01:19:49.634Z,0.00
2018-10-17T01:20:49.296Z,0.00
2018-10-17T01:21:49.221Z,0.00
2018-10-17T01:22:49.134Z,0.00
2018-10-17T01:23:49.059Z,0.00
2018-10-17T01:24:48.972Z,0.00
2018-10-17T01:25:48.883Z,0.00
2018-10-17T01:26:48.809Z,0.00
2018-10-17T01:27:48.722Z,0.00
2018-10-17T01:28:48.647Z,0.00
2018-10-17T01:29:48.560Z,0.00
2018-10-17T01:30:48.486Z,0.00
2018-10-17T01:31:48.398Z,0.00
2018-10-17T01:32:48.310Z,0.00
2018-10-17T01:33:48.234Z,0.00
2018-10-17T01:34:48.148Z,0.00
2018-10-17T01:35:48.060Z,0.00
2018-10-17T01:36:47.985Z,0.00
2018-10-17T01:37:47.898Z,0.00
2018-10-17T01:38:47.811Z,0.00
2018-10-17T01:39:47.735Z,0.00
2018-10-17T01:40:47.653Z,0.00
2018-10-17T01:41:47.574Z,0.00
2018-10-17T01:42:47.486Z,0.00
2018-10-17T01:43:47.399Z,0.00
2018-10-17T01:44:47.324Z,0.00
2018-10-17T01:45:47.236Z,0.00
2018-10-17T01:46:47.161Z,0.00
2018-10-17T01:47:47.074Z,0.00
2018-10-17T01:48:46.985Z,0.00
2018-10-17T01:49:46.912Z,0.00
2018-10-17T01:50:46.825Z,0.00
2018-10-17T01:51:46.750Z,0.00
2018-10-17T01:52:46.674Z,0.00
2018-10-17T01:53:46.579Z,0.00
2018-10-17T01:54:46.504Z,0.00
2018-10-17T01:55:46.412Z,0.00
2018-10-17T01:56:46.324Z,0.00
2018-10-17T01:57:46.251Z,0.00
2018-10-17T01:58:46.165Z,0.00
2018-10-17T01:59:46.086Z,0.00
2018-10-17T02:00:46.002Z,0.00
2018-10-17T02:01:45.914Z,0.00
2018-10-17T02:02:45.837Z,0.00
2018-10-17T02:03:45.751Z,0.00
2018-10-17T02:04:45.914Z,0.00
2018-10-17T02:05:45.601Z,0.00
2018-10-17T02:06:45.508Z,0.00
2018-10-17T02:07:45.425Z,0.00
2018-10-17T02:08:45.337Z,0.00
2018-10-17T02:09:45.252Z,0.00
2018-10-17T02:10:45.237Z,0.00
2018-10-17T02:11:45.089Z,0.00
2018-10-17T02:12:45.014Z,0.00
2018-10-17T02:13:44.927Z,0.00
2018-10-17T02:14:44.838Z,0.00
2018-10-17T02:15:44.764Z,0.00
2018-10-17T02:16:44.677Z,0.00
2018-10-17T02:17:44.603Z,0.00
2018-10-17T02:18:44.514Z,0.00
2018-10-17T02:19:44.427Z,0.00
2018-10-17T02:20:44.352Z,0.00
2018-10-17T02:21:44.267Z,0.00
2018-10-17T02:22:44.177Z,0.00
2018-10-17T02:23:44.103Z,0.00
2018-10-17T02:24:44.264Z,0.00
2018-10-17T02:25:43.939Z,0.00
2018-10-17T02:26:43.855Z,0.00
2018-10-17T02:27:43.768Z,0.00
2018-10-17T02:28:43.704Z,0.00
2018-10-17T02:29:43.656Z,0.00
2018-10-17T02:30:43.517Z,0.00
2018-10-17T02:31:43.455Z,0.00
2018-10-17T02:32:43.357Z,0.00
2018-10-17T02:33:43.283Z,0.00
2018-10-17T02:34:43.191Z,0.00
2018-10-17T02:35:43.103Z,0.00
2018-10-17T02:36:43.029Z,0.00
2018-10-17T02:37:42.941Z,0.00
2018-10-17T02:38:42.867Z,0.00
2018-10-17T02:39:42.835Z,0.00
2018-10-17T02:40:42.692Z,0.00
2018-10-17T02:41:42.616Z,0.00
2018-10-17T02:42:42.530Z,0.00
2018-10-17T02:43:42.443Z,0.00
2018-10-17T02:44:42.367Z,0.00
2018-10-17T02:45:42.281Z,0.00
2018-10-17T02:46:42.205Z,0.00
2018-10-17T02:47:42.117Z,0.00
2018-10-17T02:48:42.031Z,0.00
2018-10-17T02:49:41.956Z,0.00
2018-10-17T02:50:41.868Z,0.00
2018-10-17T02:51:41.793Z,0.00
2018-10-17T02:52:41.706Z,0.00
2018-10-17T02:53:41.619Z,0.00
2018-10-17T02:54:41.543Z,0.00
2018-10-17T02:55:41.465Z,0.00
2018-10-17T02:56:41.368Z,0.00
2018-10-17T02:57:41.296Z,0.00
2018-10-17T02:58:41.210Z,0.00
2018-10-17T02:59:41.132Z,0.00
2018-10-17T03:00:41.044Z,0.00
2018-10-17T03:01:40.957Z,0.00
2018-10-17T03:02:40.882Z,0.00
2018-10-17T03:03:40.794Z,0.00
2018-10-17T03:04:40.707Z,0.00
2018-10-17T03:05:40.633Z,0.00
2018-10-17T03:06:40.545Z,0.00
2018-10-17T03:07:40.483Z,0.00
2018-10-17T03:08:40.382Z,0.00
2018-10-17T03:09:40.295Z,0.00
2018-10-17T03:10:40.220Z,0.00
2018-10-17T03:11:40.133Z,0.00
2018-10-17T03:12:40.050Z,0.00
2018-10-17T03:13:39.982Z,0.00
2018-10-17T03:14:39.883Z,0.00
2018-10-17T03:15:39.810Z,0.00
2018-10-17T03:16:39.720Z,0.00
2018-10-17T03:17:39.650Z,0.00
2018-10-17T03:18:39.559Z,0.00
2018-10-17T03:19:39.721Z,0.00
2018-10-17T03:20:39.395Z,0.00
2018-10-17T03:21:39.309Z,0.00
2018-10-17T03:22:39.221Z,0.00
2018-10-17T03:23:39.152Z,0.00
2018-10-17T03:24:39.061Z,0.00
2018-10-17T03:25:38.972Z,0.00
2018-10-17T03:26:38.897Z,0.00
2018-10-17T03:27:38.856Z,0.00
2018-10-17T03:28:38.728Z,0.00
2018-10-17T03:29:38.656Z,0.00
2018-10-17T03:30:38.564Z,0.00
2018-10-17T03:31:38.486Z,0.00
2018-10-17T03:32:38.397Z,0.00
2018-10-17T03:33:38.311Z,0.00
2018-10-17T03:34:38.235Z,0.00
2018-10-17T03:35:38.192Z,0.00
2018-10-17T03:36:38.074Z,0.00
2018-10-17T03:37:37.987Z,0.00
2018-10-17T03:38:37.903Z,0.00
2018-10-17T03:39:37.836Z,0.00
2018-10-17T03:40:37.736Z,0.00
2018-10-17T03:41:37.647Z,0.00
2018-10-17T03:42:37.569Z,0.00
2018-10-17T03:43:37.482Z,0.00
2018-10-17T03:44:37.412Z,0.00
2018-10-17T03:45:37.325Z,0.00
2018-10-17T03:46:37.237Z,0.00
2018-10-17T03:47:37.168Z,0.00
2018-10-17T03:48:37.071Z,0.00
2018-10-17T03:49:36.989Z,0.00
2018-10-17T03:50:36.914Z,0.00
2018-10-17T03:51:36.837Z,0.00
2018-10-17T03:52:36.747Z,0.00
2018-10-17T03:53:36.666Z,0.00
2018-10-17T03:54:36.569Z,0.00
2018-10-17T03:55:36.493Z,0.00
2018-10-17T03:56:36.417Z,0.00
2018-10-17T03:57:36.338Z,0.00
2018-10-17T03:58:36.249Z,0.00
2018-10-17T03:59:36.305Z,0.00
2018-10-17T04:00:36.076Z,0.00
2018-10-17T04:01:35.995Z,0.00
2018-10-17T04:02:35.913Z,0.00
2018-10-17T04:03:35.837Z,0.00
2018-10-17T04:04:35.998Z,0.00
2018-10-17T04:05:35.662Z,0.00
2018-10-17T04:06:35.583Z,0.00
2018-10-17T04:07:35.495Z,0.00
2018-10-17T04:08:35.422Z,0.00
2018-10-17T04:09:35.336Z,0.00
2018-10-17T04:10:35.264Z,0.00
2018-10-17T04:11:35.178Z,0.00
2018-10-17T04:12:35.085Z,0.00
2018-10-17T04:13:34.997Z,0.00
2018-10-17T04:14:34.927Z,0.00
2018-10-17T04:15:34.837Z,0.00
2018-10-17T04:16:34.753Z,0.00
2018-10-17T04:17:34.677Z,0.00
2018-10-17T04:18:34.588Z,0.00
2018-10-17T04:19:34.512Z,0.00
2018-10-17T04:20:34.428Z,0.00
2018-10-17T04:21:34.341Z,0.00
2018-10-17T04:22:34.286Z,0.00
2018-10-17T04:23:34.175Z,0.00
2018-10-17T04:24:34.089Z,0.00
2018-10-17T04:25:34.010Z,0.00
2018-10-17T04:26:33.926Z,0.00
2018-10-17T04:27:33.854Z,0.00
2018-10-17T04:28:33.763Z,0.00
2018-10-17T04:29:33.673Z,0.00
2018-10-17T04:30:33.608Z,0.00
2018-10-17T04:31:33.519Z,0.00
2018-10-17T04:32:33.426Z,0.00
2018-10-17T04:33:33.351Z,0.00
2018-10-17T04:34:33.261Z,0.00
2018-10-17T04:35:33.175Z,0.00
2018-10-17T04:36:33.102Z,0.00
2018-10-17T04:37:33.016Z,0.00
2018-10-17T04:38:32.936Z,0.00
2018-10-17T04:39:32.852Z,0.00
2018-10-17T04:40:32.764Z,0.00
2018-10-17T04:41:32.689Z,0.00
2018-10-17T04:42:32.605Z,0.00
2018-10-17T04:43:32.518Z,0.00
2018-10-17T04:44:32.436Z,0.00
2018-10-17T04:45:32.348Z,0.00
2018-10-17T04:46:32.269Z,0.00
2018-10-17T04:47:32.217Z,0.00
2018-10-17T04:48:32.105Z,0.00
2018-10-17T04:49:32.032Z,0.00
2018-10-17T04:50:31.939Z,0.00
2018-10-17T04:51:31.851Z,0.00
2018-10-17T04:52:31.794Z,0.00
2018-10-17T04:53:31.693Z,0.00
2018-10-17T04:54:31.601Z,0.00
2018-10-17T04:55:31.528Z,0.00
2018-10-17T04:56:31.438Z,0.00
2018-10-17T04:57:31.351Z,0.00
2018-10-17T04:58:31.281Z,0.00
2018-10-17T04:59:31.193Z,0.00
2018-10-17T05:00:31.122Z,0.00
2018-10-17T05:01:31.028Z,0.00
2018-10-17T05:02:30.944Z,0.00
2018-10-17T05:03:30.873Z,0.00
2018-10-17T05:04:31.036Z,0.00
2018-10-17T05:05:30.693Z,0.00
2018-10-17T05:06:30.614Z,0.00
2018-10-17T05:07:30.527Z,0.00
2018-10-17T05:08:30.446Z,0.00
2018-10-17T05:09:30.373Z,0.00
2018-10-17T05:10:30.283Z,0.00
2018-10-17T05:11:30.209Z,0.00
2018-10-17T05:12:30.120Z,0.00
2018-10-17T05:13:30.029Z,0.00
2018-10-17T05:14:29.956Z,0.00
2018-10-17T05:15:29.870Z,0.00
2018-10-17T05:16:29.780Z,0.00
2018-10-17T05:17:29.704Z,0.00
2018-10-17T05:18:29.622Z,0.00
2018-10-17T05:19:29.784Z,0.00
2018-10-17T05:20:29.457Z,0.00
2018-10-17T05:21:29.371Z,0.00
2018-10-17T05:22:29.291Z,0.00
2018-10-17T05:23:29.202Z,0.00
2018-10-17T05:24:29.120Z,0.00
2018-10-17T05:25:29.095Z,0.00
2018-10-17T05:26:28.959Z,0.00
2018-10-17T05:27:28.878Z,0.00
2018-10-17T05:28:28.795Z,0.00
2018-10-17T05:29:28.706Z,0.00
2018-10-17T05:30:28.623Z,0.00
2018-10-17T05:31:28.548Z,0.00
2018-10-17T05:32:28.454Z,0.00
2018-10-17T05:33:28.379Z,5.63
2018-10-17T05:34:28.296Z,5.63
2018-10-17T05:35:28.208Z,5.63
2018-10-17T05:36:28.138Z,5.63
2018-10-17T05:37:28.122Z,5.63
2018-10-17T05:38:27.971Z,5.63
2018-10-17T05:39:28.131Z,5.63
2018-10-17T05:40:27.804Z,5.63
2018-10-17T05:41:27.712Z,5.63
2018-10-17T05:42:27.632Z,11.25
2018-10-17T05:43:27.546Z,11.25
2018-10-17T05:44:27.517Z,11.25
2018-10-17T05:45:27.396Z,11.25
2018-10-17T05:46:27.300Z,11.25
2018-10-17T05:47:27.223Z,11.25
2018-10-17T05:48:27.133Z,11.25
2018-10-17T05:49:27.046Z,16.88
2018-10-17T05:50:26.975Z,16.88
2018-10-17T05:51:26.888Z,16.88
2018-10-17T05:52:26.801Z,16.88
2018-10-17T05:53:26.727Z,16.88
2018-10-17T05:54:26.632Z,22.50
2018-10-17T05:55:26.600Z,22.50
2018-10-17T05:56:26.476Z,22.50
2018-10-17T05:57:26.386Z,22.50
2018-10-17T05:58:26.306Z,22.50
2018-10-17T05:59:26.220Z,22.50
2018-10-17T06:00:26.137Z,28.13
2018-10-17T06:01:26.125Z,28.13
2018-10-17T06:02:26.007Z,28.13
2018-10-17T06:03:25.889Z,28.13
2018-10-17T06:04:25.808Z,28.13
2018-10-17T06:05:25.721Z,33.75
2018-10-17T06:06:25.640Z,33.75
2018-10-17T06:07:25.577Z,33.75
2018-10-17T06:08:25.478Z,33.75
2018-10-17T06:09:25.410Z,33.75
2018-10-17T06:10:25.386Z,33.75
2018-10-17T06:11:25.225Z,39.38
2018-10-17T06:12:25.151Z,39.38
2018-10-17T06:13:25.063Z,39.38
2018-10-17T06:14:24.972Z,39.38
2018-10-17T06:15:24.897Z,39.38
2018-10-17T06:16:24.811Z,45.00
2018-10-17T06:17:24.784Z,45.00
2018-10-17T06:18:24.654Z,45.00
2018-10-17T06:19:24.816Z,45.00
2018-10-17T06:20:24.503Z,45.00
2018-10-17T06:21:24.405Z,45.00
2018-10-17T06:22:24.315Z,50.63
2018-10-17T06:23:24.243Z,50.63
2018-10-17T06:24:24.158Z,50.63
2018-10-17T06:25:24.067Z,50.63
2018-10-17T06:26:23.988Z,50.63
2018-10-17T06:27:23.904Z,56.25
2018-10-17T06:28:23.892Z,56.25
2018-10-17T06:29:23.742Z,56.25
2018-10-17T06:30:23.650Z,56.25
2018-10-17T06:31:23.576Z,56.25
2018-10-17T06:32:23.489Z,61.88
2018-10-17T06:33:23.400Z,61.88
2018-10-17T06:34:23.402Z,61.88
2018-10-17T06:35:23.254Z,61.88
2018-10-17T06:36:23.151Z,61.88
2018-10-17T06:37:23.080Z,61.88
2018-10-17T06:38:22.997Z,67.50
2018-10-17T06:39:23.167Z,67.50
2018-10-17T06:40:22.834Z,67.50
2018-10-17T06:41:22.742Z,67.50
2018-10-17T06:42:22.661Z,73.13
2018-10-17T06:43:22.581Z,73.13
2018-10-17T06:44:22.492Z,73.13
2018-10-17T06:45:22.416Z,78.75
2018-10-17T06:46:22.330Z,78.75
2018-10-17T06:47:22.318Z,78.75
2018-10-17T06:48:22.177Z,78.75
2018-10-17T06:49:22.078Z,84.38
2018-10-17T06:50:22.011Z,84.38
2018-10-17T06:51:21.940Z,84.38
2018-10-17T06:52:21.838Z,84.38
2018-10-17T06:53:21.751Z,84.38
2018-10-17T06:54:21.744Z,90.00
2018-10-17T06:55:21.593Z,90.00
2018-10-17T06:56:21.511Z,90.00
2018-10-17T06:57:21.423Z,95.63
2018-10-17T06:58:21.345Z,95.63
2018-10-17T06:59:21.259Z,95.63
2018-10-17T07:00:21.193Z,95.63
2018-10-17T07:01:21.095Z,95.63
2018-10-17T07:02:21.136Z,95.63
2018-10-17T07:03:20.929Z,101.25
2018-10-17T07:04:20.839Z,101.25
2018-10-17T07:05:20.759Z,101.25
2018-10-17T07:06:20.684Z,101.25
2018-10-17T07:07:20.676Z,106.88
2018-10-17T07:08:20.591Z,106.88
2018-10-17T07:09:20.465Z,106.88
2018-10-17T07:10:20.347Z,106.88
2018-10-17T07:11:20.302Z,112.50
2018-10-17T07:12:20.185Z,112.50
2018-10-17T07:13:20.161Z,106.88
2018-10-17T07:14:20.022Z,112.50
2018-10-17T07:15:20.056Z,112.50
2018-10-17T07:16:19.861Z,112.50
2018-10-17T07:17:19.785Z,112.50
2018-10-17T07:18:19.693Z,112.50
2018-10-17T07:19:19.856Z,112.50
2018-10-17T07:20:19.516Z,112.50
2018-10-17T07:21:19.441Z,112.50
2018-10-17T07:22:19.358Z,118.13
2018-10-17T07:23:19.287Z,118.13
2018-10-17T07:24:19.193Z,112.50
2018-10-17T07:25:19.107Z,112.50
2018-10-17T07:26:19.042Z,112.50
2018-10-17T07:27:18.948Z,112.50
2018-10-17T07:28:18.898Z,112.50
2018-10-17T07:29:18.853Z,112.50
2018-10-17T07:30:18.692Z,112.50
2018-10-17T07:31:18.624Z,112.50
2018-10-17T07:32:18.535Z,118.13
2018-10-17T07:33:18.460Z,118.13
2018-10-17T07:34:18.371Z,118.13
2018-10-17T07:35:18.295Z,118.13
2018-10-17T07:36:18.273Z,118.13
2018-10-17T07:37:18.122Z,118.13
2018-10-17T07:38:18.049Z,123.75
2018-10-17T07:39:18.215Z,123.75
2018-10-17T07:40:17.882Z,123.75
2018-10-17T07:41:17.794Z,123.75
2018-10-17T07:42:17.829Z,123.75
2018-10-17T07:43:17.637Z,123.75
2018-10-17T07:44:17.551Z,123.75
2018-10-17T07:45:17.490Z,129.38
2018-10-17T07:46:17.385Z,129.38
2018-10-17T07:47:17.309Z,129.38
2018-10-17T07:48:17.309Z,135.00
2018-10-17T07:49:17.152Z,135.00
2018-10-17T07:50:17.060Z,135.00
2018-10-17T07:51:16.974Z,140.63
2018-10-17T07:52:16.895Z,140.63
2018-10-17T07:53:16.866Z,146.25
2018-10-17T07:54:16.798Z,151.88
2018-10-17T07:55:16.656Z,151.88
2018-10-17T07:56:16.573Z,157.50
2018-10-17T07:57:16.485Z,157.50
2018-10-17T07:58:16.402Z,163.13
2018-10-17T07:59:16.328Z,163.13
2018-10-17T08:00:16.304Z,168.75
2018-10-17T08:01:16.164Z,163.13
2018-10-17T08:02:16.071Z,168.75
2018-10-17T08:03:15.997Z,168.75
2018-10-17T08:04:15.914Z,174.38
2018-10-17T08:05:15.840Z,174.38
2018-10-17T08:06:15.875Z,174.38
2018-10-17T08:07:15.663Z,180.00
2018-10-17T08:08:15.588Z,180.00
2018-10-17T08:09:15.499Z,185.63
2018-10-17T08:10:15.441Z,185.63
2018-10-17T08:11:15.352Z,185.63
2018-10-17T08:12:15.368Z,185.63
2018-10-17T08:13:15.172Z,185.63
2018-10-17T08:14:15.191Z,191.25
2018-10-17T08:15:15.015Z,191.25
2018-10-17T08:16:14.943Z,191.25
2018-10-17T08:17:14.853Z,196.88
2018-10-17T08:18:14.854Z,196.88
2018-10-17T08:19:14.939Z,196.88
2018-10-17T08:20:14.612Z,196.88
2018-10-17T08:21:14.545Z,196.88
2018-10-17T08:22:14.456Z,196.88
2018-10-17T08:23:14.368Z,196.88
2018-10-17T08:24:14.382Z,196.88
2018-10-17T08:25:14.202Z,196.88
2018-10-17T08:26:14.113Z,196.88
2018-10-17T08:27:14.098Z,196.88
2018-10-17T08:28:13.956Z,196.88
2018-10-17T08:29:13.883Z,196.88
2018-10-17T08:30:13.861Z,196.88
2018-10-17T08:31:13.714Z,213.75
2018-10-17T08:32:13.628Z,230.63
2018-10-17T08:33:13.549Z,236.25
2018-10-17T08:34:13.467Z,241.88
2018-10-17T08:35:13.395Z,264.38
2018-10-17T08:36:13.454Z,270.00
2018-10-17T08:37:13.533Z,281.25
2018-10-17T08:38:13.154Z,286.88
2018-10-17T08:39:13.068Z,281.25
2018-10-17T08:40:12.994Z,281.25
2018-10-17T08:41:13.021Z,281.25
2018-10-17T08:42:12.828Z,281.25
2018-10-17T08:43:12.741Z,281.25
2018-10-17T08:44:12.757Z,281.25
2018-10-17T08:45:12.618Z,275.63
2018-10-17T08:46:12.500Z,253.13
2018-10-17T08:47:12.425Z,230.63
2018-10-17T08:48:12.341Z,225.00
2018-10-17T08:49:12.266Z,241.88
2018-10-17T08:50:12.343Z,236.25
2018-10-17T08:51:12.108Z,225.00
2018-10-17T08:52:12.028Z,230.63
2018-10-17T08:53:11.954Z,241.88
2018-10-17T08:54:11.871Z,247.50
2018-10-17T08:55:11.797Z,253.13
2018-10-17T08:56:11.808Z,241.88
2018-10-17T08:57:11.631Z,230.63
2018-10-17T08:58:11.555Z,230.63
2018-10-17T08:59:11.732Z,236.25
2018-10-17T09:00:11.400Z,241.88
2018-10-17T09:01:11.322Z,253.13
2018-10-17T09:02:11.288Z,281.25
2018-10-17T09:03:11.156Z,292.50
2018-10-17T09:04:11.077Z,298.13
2018-10-17T09:05:11.005Z,298.13
2018-10-17T09:06:10.949Z,298.13
2018-10-17T09:07:10.846Z,298.13
2018-10-17T09:08:10.768Z,292.50
2018-10-17T09:09:10.692Z,286.88
2018-10-17T09:10:10.608Z,281.25
2018-10-17T09:11:10.546Z,275.63
2018-10-17T09:12:10.525Z,264.38
2018-10-17T09:13:10.387Z,247.50
2018-10-17T09:14:10.345Z,236.25
2018-10-17T09:15:10.219Z,230.63
2018-10-17T09:16:10.216Z,230.63
2018-10-17T09:17:10.059Z,236.25
2018-10-17T09:18:10.040Z,230.63
2018-10-17T09:19:10.177Z,230.63
2018-10-17T09:20:10.179Z,230.63
2018-10-17T09:21:10.182Z,230.63
2018-10-17T09:22:09.982Z,230.63
2018-10-17T09:23:09.599Z,230.63
2018-10-17T09:24:09.577Z,230.63
2018-10-17T09:25:09.434Z,230.63
2018-10-17T09:26:09.362Z,230.63
2018-10-17T09:27:09.273Z,236.25
2018-10-17T09:28:09.273Z,236.25
2018-10-17T09:29:09.127Z,236.25
2018-10-17T09:30:09.163Z,236.25
2018-10-17T09:31:08.957Z,236.25
2018-10-17T09:32:08.885Z,236.25
2018-10-17T09:33:08.810Z,236.25
2018-10-17T09:34:08.798Z,236.25
2018-10-17T09:35:08.707Z,236.25
2018-10-17T09:36:08.671Z,236.25
2018-10-17T09:37:08.483Z,236.25
2018-10-17T09:38:08.412Z,241.88
2018-10-17T09:39:08.337Z,241.88
2018-10-17T09:40:08.304Z,241.88
2018-10-17T09:41:08.172Z,247.50
2018-10-17T09:42:08.171Z,247.50
2018-10-17T09:43:08.052Z,247.50
2018-10-17T09:44:07.938Z,247.50
2018-10-17T09:45:07.874Z,253.13
2018-10-17T09:46:07.857Z,247.50
2018-10-17T09:47:07.695Z,253.13
2018-10-17T09:48:07.734Z,253.13
2018-10-17T09:49:07.554Z,258.75
2018-10-17T09:50:07.460Z,258.75
2018-10-17T09:51:07.385Z,264.38
2018-10-17T09:52:07.367Z,264.38
2018-10-17T09:53:07.236Z,264.38
2018-10-17T09:54:07.216Z,270.00
2018-10-17T09:55:07.076Z,270.00
2018-10-17T09:56:07.004Z,281.25
2018-10-17T09:57:06.922Z,292.50
2018-10-17T09:58:06.871Z,309.38
2018-10-17T09:59:07.026Z,303.75
2018-10-17T10:00:06.739Z,292.50
2018-10-17T10:01:06.607Z,281.25
2018-10-17T10:02:06.595Z,286.88
2018-10-17T10:03:06.450Z,286.88
2018-10-17T10:04:06.499Z,292.50
2018-10-17T10:05:06.287Z,286.88
2018-10-17T10:06:06.213Z,286.88
2018-10-17T10:07:06.135Z,281.25
2018-10-17T10:08:06.051Z,286.88
2018-10-17T10:09:06.225Z,286.88
2018-10-17T10:10:05.996Z,286.88
2018-10-17T10:11:05.917Z,298.13
2018-10-17T10:12:05.800Z,298.13
2018-10-17T10:13:05.662Z,292.50
2018-10-17T10:14:05.594Z,286.88
2018-10-17T10:15:05.517Z,286.88
2018-10-17T10:16:05.499Z,286.88
2018-10-17T10:17:05.430Z,286.88
2018-10-17T10:18:05.275Z,286.88
2018-10-17T10:19:05.198Z,286.88
2018-10-17T10:20:05.130Z,292.50
2018-10-17T10:21:05.046Z,298.13
2018-10-17T10:22:04.982Z,292.50
2018-10-17T10:23:04.904Z,292.50
2018-10-17T10:24:04.825Z,292.50
2018-10-17T10:25:04.763Z,292.50
2018-10-17T10:26:04.653Z,292.50
2018-10-17T10:27:04.584Z,292.50
2018-10-17T10:28:04.580Z,298.13
2018-10-17T10:29:04.430Z,292.50
2018-10-17T10:30:04.353Z,292.50
2018-10-17T10:31:04.265Z,292.50
2018-10-17T10:32:04.189Z,292.50
2018-10-17T10:33:04.114Z,298.13
2018-10-17T10:34:04.060Z,298.13
2018-10-17T10:35:03.956Z,298.13
2018-10-17T10:36:03.888Z,298.13
2018-10-17T10:37:03.800Z,298.13
2018-10-17T10:38:03.730Z,298.13
2018-10-17T10:39:03.642Z,303.75
2018-10-17T10:40:03.644Z,303.75
2018-10-17T10:41:03.495Z,303.75
2018-10-17T10:42:03.426Z,303.75
2018-10-17T10:43:03.329Z,309.38
2018-10-17T10:44:03.269Z,315.00
2018-10-17T10:45:03.210Z,354.38
2018-10-17T10:46:03.104Z,433.13
2018-10-17T10:47:03.029Z,500.63
2018-10-17T10:48:03.028Z,523.13
2018-10-17T10:49:02.909Z,466.88
2018-10-17T10:50:02.873Z,382.50
2018-10-17T10:51:02.752Z,331.88
2018-10-17T10:52:02.641Z,315.00
2018-10-17T10:53:02.571Z,320.63
2018-10-17T10:54:02.564Z,365.63
2018-10-17T10:55:02.409Z,478.13
2018-10-17T10:56:02.344Z,562.50
2018-10-17T10:57:02.286Z,517.50
2018-10-17T10:58:02.219Z,455.63
2018-10-17T10:59:02.124Z,545.63
2018-10-17T11:00:02.062Z,618.75
2018-10-17T11:01:01.958Z,601.88
2018-10-17T11:02:01.951Z,534.38
2018-10-17T11:03:01.872Z,438.75
2018-10-17T11:04:01.719Z,410.63
2018-10-17T11:05:01.738Z,455.63
2018-10-17T11:06:01.578Z,545.63
2018-10-17T11:07:01.497Z,613.13
2018-10-17T11:08:01.456Z,630.00
2018-10-17T11:09:01.340Z,573.75
2018-10-17T11:10:01.270Z,573.75
2018-10-17T11:11:01.225Z,607.50
2018-10-17T11:12:01.123Z,669.38
2018-10-17T11:13:01.061Z,697.50
2018-10-17T11:14:01.038Z,708.75
2018-10-17T11:15:01.073Z,708.75
2018-10-17T11:16:00.823Z,714.38
2018-10-17T11:17:00.787Z,720.00
2018-10-17T11:18:00.669Z,720.00
2018-10-17T11:19:00.594Z,720.00
2018-10-17T11:20:00.518Z,725.63
2018-10-17T11:21:00.455Z,731.25
2018-10-17T11:22:00.431Z,731.25
2018-10-17T11:23:00.359Z,736.88
2018-10-17T11:24:00.222Z,736.88
2018-10-17T11:25:00.145Z,731.25
2018-10-17T11:26:00.077Z,736.88
2018-10-17T11:27:00.053Z,742.50
2018-10-17T11:27:59.939Z,736.88
2018-10-17T11:28:59.869Z,736.88
2018-10-17T11:29:59.781Z,736.88
2018-10-17T11:30:59.707Z,736.88
2018-10-17T11:31:59.696Z,736.88
2018-10-17T11:32:59.640Z,736.88
2018-10-17T11:33:59.499Z,742.50
2018-10-17T11:34:59.455Z,742.50
2018-10-17T11:35:59.343Z,753.75
2018-10-17T11:36:59.270Z,753.75
2018-10-17T11:37:59.241Z,759.38
2018-10-17T11:38:59.181Z,787.50
2018-10-17T11:39:59.066Z,945.00
2018-10-17T11:40:59.021Z,1068.75
2018-10-17T11:41:58.920Z,1063.13
2018-10-17T11:42:58.839Z,1057.50
2018-10-17T11:43:58.773Z,1085.63
2018-10-17T11:44:58.751Z,1080.00
2018-10-17T11:45:58.633Z,1080.00
2018-10-17T11:46:58.582Z,1091.25
2018-10-17T11:47:58.475Z,1130.63
2018-10-17T11:48:58.415Z,1153.13
2018-10-17T11:49:58.333Z,1158.75
2018-10-17T11:50:58.268Z,1153.13
2018-10-17T11:51:58.186Z,1141.88
2018-10-17T11:52:58.185Z,1141.88
2018-10-17T11:53:58.052Z,1158.75
2018-10-17T11:54:57.977Z,1147.50
2018-10-17T11:55:57.897Z,1147.50
2018-10-17T11:56:57.840Z,1147.50
2018-10-17T11:57:57.764Z,1153.13
2018-10-17T11:58:57.989Z,1130.63
2018-10-17T11:59:57.628Z,1136.25
2018-10-17T12:00:57.567Z,1136.25
2018-10-17T12:01:57.474Z,1141.88
2018-10-17T12:02:57.422Z,1164.38
2018-10-17T12:03:57.556Z,1175.63
2018-10-17T12:04:57.559Z,1181.25
2018-10-17T12:05:57.343Z,1181.25
2018-10-17T12:06:57.113Z,1198.13
2018-10-17T12:07:57.049Z,1215.00
2018-10-17T12:08:57.108Z,1215.00
2018-10-17T12:09:56.901Z,1226.25
2018-10-17T12:10:56.827Z,1226.25
2018-10-17T12:11:56.887Z,1237.50
2018-10-17T12:12:56.688Z,1237.50
2018-10-17T12:13:56.621Z,1231.88
2018-10-17T12:14:56.568Z,1231.88
2018-10-17T12:15:56.477Z,1215.00
2018-10-17T12:16:56.416Z,1215.00
2018-10-17T12:17:56.369Z,1215.00
2018-10-17T12:18:56.278Z,1226.25
2018-10-17T12:19:56.230Z,1231.88
2018-10-17T12:20:56.140Z,1220.63
2018-10-17T12:21:56.042Z,1203.75
2018-10-17T12:22:55.962Z,1186.88
2018-10-17T12:23:55.947Z,1220.63
2018-10-17T12:24:55.828Z,1248.75
2018-10-17T12:25:55.756Z,1276.88
2018-10-17T12:26:55.739Z,1271.25
2018-10-17T12:27:55.724Z,1271.25
2018-10-17T12:28:55.640Z,1260.00
2018-10-17T12:29:55.529Z,1248.75
2018-10-17T12:30:55.404Z,1237.50
2018-10-17T12:31:55.344Z,1215.00
2018-10-17T12:32:55.268Z,1215.00
2018-10-17T12:33:55.178Z,1203.75
2018-10-17T12:34:55.153Z,1186.88
2018-10-17T12:35:55.040Z,1175.63
2018-10-17T12:36:54.965Z,1153.13
2018-10-17T12:37:54.906Z,1147.50
2018-10-17T12:38:54.831Z,1136.25
2018-10-17T12:39:54.944Z,1125.00
2018-10-17T12:40:54.805Z,1125.00
2018-10-17T12:41:54.603Z,1102.50
2018-10-17T12:42:54.529Z,1096.88
2018-10-17T12:43:54.503Z,1091.25
2018-10-17T12:44:54.439Z,1085.63
2018-10-17T12:45:54.321Z,1063.13
2018-10-17T12:56:44.004Z,1085.63
2018-10-17T12:57:43.934Z,1091.25
2018-10-17T12:58:43.875Z,1085.63
2018-10-17T12:59:43.782Z,1085.63